Thunder radar more information blitzortung!


Radar de pluja more information rain snow radar


Visita la nostra xarxa de llocs de meteo:

Template documentation
and downloads

And another site



No particular awareness of the weather is required.    There are no Weather-warnings

Pagina Historial Weather Underground text

Diari Resum Octubre 5, 2017 Unitats:  Mètric    Imperial   Tant
« Previous Dia
SegĂźent Dia »
Diari Setmana Mensual Anual Personalitzada
  Maxima: Minima: Media:
Temperatura: 28.6 °C 14.8 °C 22.6 °C
Punt de rosada: 18.3 °C 13.3 °C 16.8 °C
Humitat: 93 % 51 % 71 %
Wind Speed: 18.5 km/h 0.0 km/h 6.1 km/h
RĂ fegues de vent: 18.5 km/h - -
Vent:- - SW
Pression baro: 1024.9 hPa 1016.8 hPa -
Precipitacions: 0.0 mm    
Historical Graphs
 
 
Dades de taula per Octubre 5, 2017
Temps Temperatura Punt de rosada Pression baro Vent Wind Speed RĂ fegues de vent Humitat Rainfall Rate (Hourly)
00:00 17.1 °C 14.9 °C 1021.9 hPa Calm     87 % 0.0 mm
00:04 19.4 °C 17.0 °C 1024.9 hPa Calm     86 % 0.0 mm
00:10 17.0 °C 14.8 °C 1021.9 hPa WNW 1.6 km/h 1.6 km/h 87 % 0.0 mm
00:30 16.7 °C 14.7 °C 1022.9 hPa Calm     88 % 0.0 mm
01:00 16.1 °C 14.1 °C 1021.9 hPa Calm     88 % 0.0 mm
01:10 16.0 °C 14.2 °C 1021.9 hPa Calm     89 % 0.0 mm
01:20 15.8 °C 14.0 °C 1021.9 hPa Calm     89 % 0.0 mm
01:30 15.8 °C 14.0 °C 1021.9 hPa Calm     89 % 0.0 mm
01:40 15.6 °C 13.8 °C 1021.9 hPa NW 1.6 km/h 3.2 km/h 89 % 0.0 mm
01:50 15.5 °C 13.9 °C 1021.9 hPa Calm     90 % 0.0 mm
02:00 15.3 °C 13.5 °C 1021.9 hPa Calm     89 % 0.0 mm
02:10 15.1 °C 13.4 °C 1021.9 hPa Calm     90 % 0.0 mm
02:20 15.1 °C 13.4 °C 1021.9 hPa Calm     90 % 0.0 mm
02:50 15.0 °C 13.4 °C 1021.9 hPa Calm     90 % 0.0 mm
03:00 14.9 °C 13.4 °C 1021.9 hPa Calm     91 % 0.0 mm
03:10 14.8 °C 13.3 °C 1021.9 hPa Calm     91 % 0.0 mm
03:20 14.9 °C 13.4 °C 1021.9 hPa Calm     91 % 0.0 mm
03:30 14.9 °C 13.6 °C 1021.9 hPa Calm     92 % 0.0 mm
03:40 15.6 °C 14.4 °C 1021.9 hPa Calm     93 % 0.0 mm
03:50 15.6 °C 14.3 °C 1020.9 hPa Calm   1.6 km/h 92 % 0.0 mm
04:00 15.4 °C 13.9 °C 1021.9 hPa South 1.6 km/h 3.2 km/h 91 % 0.0 mm
04:10 15.6 °C 14.1 °C 1021.9 hPa SW 1.6 km/h 3.2 km/h 91 % 0.0 mm
04:20 16.5 °C 15.2 °C 1021.9 hPa Calm     92 % 0.0 mm
04:40 17.4 °C 15.4 °C 1021.9 hPa South 1.6 km/h 3.2 km/h 88 % 0.0 mm
04:50 18.4 °C 16.2 °C 1021.9 hPa SSW 1.6 km/h 3.2 km/h 87 % 0.0 mm
05:00 19.0 °C 16.2 °C 1021.9 hPa SSE 1.6 km/h 3.2 km/h 84 % 0.0 mm
05:10 19.8 °C 16.8 °C 1021.9 hPa SSE 1.6 km/h 3.2 km/h 83 % 0.0 mm
05:20 20.7 °C 17.1 °C 1021.9 hPa SE 1.6 km/h 3.2 km/h 80 % 0.0 mm
05:30 21.2 °C 17.2 °C 1020.9 hPa ESE 1.6 km/h 4.8 km/h 78 % 0.0 mm
05:40 21.8 °C 17.6 °C 1020.9 hPa SSE 1.6 km/h 3.2 km/h 77 % 0.0 mm
05:45 22.0 °C 17.8 °C 1020.9 hPa Calm   3.2 km/h 77 % 0.0 mm
10:45 22.3 °C 18.1 °C 1021.9 hPa South 5.3 km/h 5.3 km/h 77 % 0.0 mm
10:50 22.3 °C 17.9 °C 1021.9 hPa WSW 1.9 km/h 1.9 km/h 76 % 0.0 mm
10:55 22.7 °C 18.1 °C 1021.9 hPa SSE 3.7 km/h 3.7 km/h 75 % 0.0 mm
11:00 23.0 °C 18.1 °C 1021.9 hPa SW 3.9 km/h 3.9 km/h 74 % 0.0 mm
11:05 22.7 °C 17.8 °C 1021.9 hPa South 7.4 km/h 7.4 km/h 74 % 0.0 mm
11:10 23.0 °C 17.9 °C 1021.9 hPa SW 7.4 km/h 7.4 km/h 73 % 0.0 mm
11:15 22.6 °C 17.5 °C 1021.9 hPa SW 5.6 km/h 5.6 km/h 73 % 0.0 mm
11:20 23.0 °C 17.7 °C 1021.9 hPa West 3.7 km/h 3.7 km/h 72 % 0.0 mm
11:25 23.0 °C 17.7 °C 1021.9 hPa ESE 2.6 km/h 2.6 km/h 72 % 0.0 mm
11:30 23.8 °C 18.2 °C 1021.9 hPa SW 3.7 km/h 3.7 km/h 71 % 0.0 mm
11:35 23.9 °C 18.3 °C 1021.9 hPa SW 9.3 km/h 9.3 km/h 71 % 0.0 mm
11:40 23.7 °C 17.9 °C 1021.9 hPa WSW 3.7 km/h 3.9 km/h 70 % 0.0 mm
11:45 24.0 °C 17.7 °C 1021.9 hPa West 6.1 km/h 6.1 km/h 68 % 0.0 mm
11:50 24.1 °C 17.8 °C 1021.9 hPa WSW 9.3 km/h 9.3 km/h 68 % 0.0 mm
11:55 24.1 °C 17.8 °C 1021.9 hPa SW 9.3 km/h 9.3 km/h 68 % 0.0 mm
12:00 24.7 °C 18.2 °C 1021.9 hPa WNW 7.4 km/h 7.4 km/h 67 % 0.0 mm
12:05 24.6 °C 18.1 °C 1021.9 hPa SSW 7.4 km/h 7.4 km/h 67 % 0.0 mm
12:10 25.0 °C 17.7 °C 1021.9 hPa SSW 3.7 km/h 3.7 km/h 64 % 0.0 mm
12:15 24.9 °C 17.9 °C 1021.9 hPa NW 5.3 km/h 5.3 km/h 65 % 0.0 mm
12:20 25.3 °C 18.0 °C 1021.9 hPa South 3.7 km/h 5.3 km/h 64 % 0.0 mm
12:25 25.2 °C 17.7 °C 1021.9 hPa WSW 9.3 km/h 9.3 km/h 63 % 0.0 mm
12:30 25.2 °C 17.7 °C 1021.9 hPa SW 9.3 km/h 9.3 km/h 63 % 0.0 mm
12:35 25.3 °C 17.5 °C 1021.9 hPa West 9.3 km/h 9.3 km/h 62 % 0.0 mm
12:50 26.3 °C 18.2 °C 1020.9 hPa SSE 7.6 km/h 7.6 km/h 61 % 0.0 mm
12:55 26.2 °C 17.6 °C 1020.9 hPa West 7.4 km/h 7.4 km/h 59 % 0.0 mm
13:00 26.7 °C 17.8 °C 1020.9 hPa South 6.9 km/h 6.9 km/h 58 % 0.0 mm
13:05 26.2 °C 17.3 °C 1020.9 hPa WSW 12.2 km/h 12.2 km/h 58 % 0.0 mm
13:10 26.4 °C 17.7 °C 1020.9 hPa West 9.7 km/h 9.7 km/h 59 % 0.0 mm
13:15 26.7 °C 17.8 °C 1019.9 hPa WSW 3.7 km/h 3.7 km/h 58 % 0.0 mm
13:20 27.1 °C 17.6 °C 1019.9 hPa WSW 6.1 km/h 6.1 km/h 56 % 0.0 mm
13:25 27.2 °C 17.7 °C 1019.9 hPa SW 11.1 km/h 11.1 km/h 56 % 0.0 mm
13:26 27.2 °C 17.7 °C 1019.9 hPa SW 5.6 km/h 5.6 km/h 56 % 0.0 mm
13:36 27.2 °C 17.1 °C 1019.9 hPa ESE 3.7 km/h 3.7 km/h 54 % 0.0 mm
13:41 27.3 °C 17.2 °C 1019.9 hPa SW 9.5 km/h 9.5 km/h 54 % 0.0 mm
13:46 27.2 °C 17.1 °C 1019.9 hPa SSW 9.3 km/h 9.3 km/h 54 % 0.0 mm
13:51 27.6 °C 17.2 °C 1019.9 hPa South 5.6 km/h 5.6 km/h 53 % 0.0 mm
13:56 28.0 °C 17.5 °C 1019.9 hPa South 9.3 km/h 9.3 km/h 53 % 0.0 mm
14:01 27.6 °C 16.8 °C 1019.9 hPa West 11.1 km/h 11.1 km/h 52 % 0.0 mm
14:06 27.8 °C 17.1 °C 1019.9 hPa WSW 3.7 km/h 3.7 km/h 52 % 0.0 mm
14:08 28.2 °C 17.4 °C 1019.9 hPa SW 9.0 km/h 9.0 km/h 52 % 0.0 mm
14:13 28.1 °C 17.3 °C 1019.9 hPa SSW 5.6 km/h 5.6 km/h 52 % 0.0 mm
14:18 28.3 °C 17.2 °C 1019.9 hPa South 5.6 km/h 5.6 km/h 51 % 0.0 mm
14:23 28.1 °C 17.0 °C 1019.9 hPa SSW 9.3 km/h 9.3 km/h 51 % 0.0 mm
14:28 28.2 °C 17.1 °C 1019.9 hPa SSE 14.8 km/h 14.8 km/h 51 % 0.0 mm
14:33 27.9 °C 17.1 °C 1019.9 hPa SSE 16.7 km/h 16.7 km/h 52 % 0.0 mm
14:38 28.3 °C 17.5 °C 1019.9 hPa SSW 13.0 km/h 13.0 km/h 52 % 0.0 mm
14:43 27.8 °C 17.1 °C 1019.9 hPa SSW 7.4 km/h 7.4 km/h 52 % 0.0 mm
14:48 28.4 °C 17.6 °C 1018.8 hPa SW 11.1 km/h 11.1 km/h 52 % 0.0 mm
14:53 28.3 °C 17.5 °C 1018.8 hPa West 9.3 km/h 9.3 km/h 52 % 0.0 mm
14:58 28.3 °C 17.5 °C 1018.8 hPa SW 9.5 km/h 9.5 km/h 52 % 0.0 mm
15:03 28.6 °C 17.8 °C 1018.8 hPa WSW 7.4 km/h 7.4 km/h 52 % 0.0 mm
15:08 28.4 °C 17.3 °C 1018.8 hPa SW 11.1 km/h 11.1 km/h 51 % 0.0 mm
15:13 28.4 °C 17.3 °C 1018.8 hPa West 11.1 km/h 11.1 km/h 51 % 0.0 mm
15:18 28.4 °C 17.3 °C 1018.8 hPa WSW 11.9 km/h 11.9 km/h 51 % 0.0 mm
15:23 28.6 °C 17.4 °C 1018.8 hPa SW 13.0 km/h 13.0 km/h 51 % 0.0 mm
15:28 28.5 °C 17.4 °C 1018.8 hPa SW 7.4 km/h 7.4 km/h 51 % 0.0 mm
15:33 28.3 °C 17.2 °C 1018.8 hPa SW 13.0 km/h 13.0 km/h 51 % 0.0 mm
15:38 28.5 °C 17.7 °C 1018.8 hPa South 7.4 km/h 7.4 km/h 52 % 0.0 mm
15:43 28.5 °C 17.4 °C 1018.8 hPa WSW 11.1 km/h 11.1 km/h 51 % 0.0 mm
15:48 28.0 °C 16.9 °C 1018.8 hPa SW 13.0 km/h 13.0 km/h 51 % 0.0 mm
15:58 28.3 °C 17.2 °C 1018.8 hPa SW 7.4 km/h 7.4 km/h 51 % 0.0 mm
16:08 28.0 °C 17.2 °C 1018.8 hPa WSW 14.8 km/h 14.8 km/h 52 % 0.0 mm
16:13 27.8 °C 17.1 °C 1018.8 hPa SW 9.3 km/h 9.3 km/h 52 % 0.0 mm
16:18 27.9 °C 17.1 °C 1018.8 hPa SSW 14.0 km/h 14.0 km/h 52 % 0.0 mm
16:23 27.8 °C 17.1 °C 1018.8 hPa SW 14.8 km/h 14.8 km/h 52 % 0.0 mm
16:28 27.5 °C 16.8 °C 1018.8 hPa SSW 18.5 km/h 18.5 km/h 52 % 0.0 mm
16:33 27.5 °C 17.1 °C 1018.8 hPa WSW 9.7 km/h 9.7 km/h 53 % 0.0 mm
16:38 27.6 °C 17.2 °C 1018.8 hPa South 7.4 km/h 7.4 km/h 53 % 0.0 mm
16:43 27.1 °C 16.7 °C 1018.8 hPa SW 16.7 km/h 16.7 km/h 53 % 0.0 mm
16:48 27.3 °C 17.2 °C 1018.8 hPa SW 11.9 km/h 11.9 km/h 54 % 0.0 mm
16:49 27.3 °C 17.2 °C 1018.8 hPa SSW 11.1 km/h 11.1 km/h 54 % 0.0 mm
16:54 27.0 °C 16.9 °C 1018.8 hPa SSW 13.0 km/h 13.0 km/h 54 % 0.0 mm
16:59 27.0 °C 16.9 °C 1018.8 hPa SSE 11.1 km/h 11.1 km/h 54 % 0.0 mm
17:04 27.0 °C 16.9 °C 1018.8 hPa West 13.0 km/h 13.0 km/h 54 % 0.0 mm
17:14 26.9 °C 17.4 °C 1018.8 hPa SW 11.1 km/h 11.1 km/h 56 % 0.0 mm
17:19 26.6 °C 17.1 °C 1018.8 hPa West 13.0 km/h 13.0 km/h 56 % 0.0 mm
17:24 26.6 °C 17.1 °C 1018.8 hPa West 16.7 km/h 16.7 km/h 56 % 0.0 mm
17:29 26.6 °C 17.1 °C 1017.8 hPa SW 9.7 km/h 9.7 km/h 56 % 0.0 mm
17:34 26.6 °C 17.1 °C 1017.8 hPa WSW 9.3 km/h 9.3 km/h 56 % 0.0 mm
17:39 26.4 °C 17.2 °C 1017.8 hPa WSW 13.0 km/h 13.0 km/h 57 % 0.0 mm
17:44 26.4 °C 17.2 °C 1017.8 hPa SW 14.8 km/h 14.8 km/h 57 % 0.0 mm
17:49 26.2 °C 17.0 °C 1017.8 hPa WSW 13.0 km/h 13.0 km/h 57 % 0.0 mm
17:54 26.1 °C 17.2 °C 1017.8 hPa SW 11.1 km/h 11.1 km/h 58 % 0.0 mm
17:59 26.1 °C 17.2 °C 1017.8 hPa SSW 9.3 km/h 9.3 km/h 58 % 0.0 mm
18:04 26.0 °C 17.1 °C 1017.8 hPa SSW 7.4 km/h 7.4 km/h 58 % 0.0 mm
18:09 25.7 °C 17.1 °C 1017.8 hPa SW 11.1 km/h 11.1 km/h 59 % 0.0 mm
18:14 25.6 °C 17.0 °C 1017.8 hPa West 11.1 km/h 11.1 km/h 59 % 0.0 mm
18:19 25.7 °C 17.1 °C 1017.8 hPa SW 7.9 km/h 7.9 km/h 59 % 0.0 mm
18:24 25.5 °C 16.9 °C 1017.8 hPa SSW 9.5 km/h 9.5 km/h 59 % 0.0 mm
18:29 25.2 °C 16.9 °C 1017.8 hPa WSW 11.1 km/h 11.1 km/h 60 % 0.0 mm
18:34 25.1 °C 16.8 °C 1017.8 hPa SW 7.4 km/h 7.4 km/h 60 % 0.0 mm
18:39 25.0 °C 16.7 °C 1017.8 hPa West 9.3 km/h 9.3 km/h 60 % 0.0 mm
18:44 24.9 °C 17.1 °C 1016.8 hPa SW 9.3 km/h 9.3 km/h 62 % 0.0 mm
18:49 24.7 °C 16.9 °C 1016.8 hPa SW 8.7 km/h 8.7 km/h 62 % 0.0 mm
18:54 24.4 °C 16.9 °C 1016.8 hPa SSW 9.3 km/h 9.3 km/h 63 % 0.0 mm
18:59 24.3 °C 16.8 °C 1017.8 hPa SW 9.3 km/h 9.3 km/h 63 % 0.0 mm
19:04 24.0 °C 16.5 °C 1017.8 hPa WSW 9.3 km/h 9.3 km/h 63 % 0.0 mm
19:09 23.8 °C 16.8 °C 1017.8 hPa SW 9.3 km/h 9.3 km/h 65 % 0.0 mm
19:14 23.6 °C 16.6 °C 1017.8 hPa SW 9.3 km/h 9.3 km/h 65 % 0.0 mm
19:19 23.4 °C 16.7 °C 1017.8 hPa SW 9.3 km/h 9.3 km/h 66 % 0.0 mm
19:20 19.8 °C 17.2 °C 1017.8 hPa WSW 1.6 km/h 3.2 km/h 85 % 0.0 mm
19:24 23.2 °C 16.5 °C 1017.8 hPa WSW 3.9 km/h 5.8 km/h 66 % 0.0 mm
19:29 23.0 °C 16.6 °C 1017.8 hPa SW 9.3 km/h 9.3 km/h 67 % 0.0 mm
19:30 19.7 °C 17.3 °C 1017.8 hPa WSW 1.6 km/h 1.6 km/h 86 % 0.0 mm
19:34 22.8 °C 16.6 °C 1017.8 hPa SW 9.3 km/h 9.3 km/h 68 % 0.0 mm
19:39 22.6 °C 16.4 °C 1017.8 hPa West 9.3 km/h 9.3 km/h 68 % 0.0 mm
19:40 19.5 °C 17.1 °C 1017.8 hPa Calm     86 % 0.0 mm
19:44 22.5 °C 16.5 °C 1018.8 hPa South 9.3 km/h 9.3 km/h 69 % 0.0 mm
19:49 22.3 °C 16.6 °C 1018.8 hPa SSW 5.6 km/h 5.6 km/h 70 % 0.0 mm
19:50 19.2 °C 16.8 °C 1017.8 hPa Calm   3.2 km/h 86 % 0.0 mm
19:54 22.1 °C 16.4 °C 1018.8 hPa SW 9.3 km/h 9.3 km/h 70 % 0.0 mm
19:59 22.0 °C 16.5 °C 1017.8 hPa SW 11.1 km/h 11.1 km/h 71 % 0.0 mm
20:00 19.1 °C 16.7 °C 1017.8 hPa Calm   1.6 km/h 86 % 0.0 mm
20:04 21.8 °C 16.7 °C 1017.8 hPa SSW 10.0 km/h 10.0 km/h 73 % 0.0 mm
20:09 21.6 °C 16.6 °C 1017.8 hPa WSW 14.8 km/h 14.8 km/h 73 % 0.0 mm
20:10 19.1 °C 16.9 °C 1017.8 hPa Calm   1.6 km/h 87 % 0.0 mm
20:14 21.5 °C 16.4 °C 1018.8 hPa WSW 11.1 km/h 11.1 km/h 73 % 0.0 mm
20:19 21.4 °C 16.6 °C 1018.8 hPa WSW 9.3 km/h 9.3 km/h 74 % 0.0 mm
20:20 19.1 °C 16.9 °C 1017.8 hPa Calm     87 % 0.0 mm
20:24 21.3 °C 16.5 °C 1018.8 hPa WSW 7.4 km/h 7.4 km/h 74 % 0.0 mm
20:29 21.2 °C 16.6 °C 1018.8 hPa SW 7.6 km/h 7.6 km/h 75 % 0.0 mm
20:30 19.2 °C 17.2 °C 1017.8 hPa Calm   1.6 km/h 88 % 0.0 mm
20:34 21.2 °C 16.6 °C 1018.8 hPa SW 9.3 km/h 9.3 km/h 75 % 0.0 mm
20:39 21.1 °C 16.5 °C 1018.8 hPa SW 9.3 km/h 9.3 km/h 75 % 0.0 mm
20:40 19.2 °C 17.2 °C 1017.8 hPa Calm   1.6 km/h 88 % 0.0 mm
20:44 21.0 °C 16.4 °C 1018.8 hPa SW 5.6 km/h 5.6 km/h 75 % 0.0 mm
20:49 21.0 °C 16.6 °C 1018.8 hPa WSW 3.7 km/h 3.7 km/h 76 % 0.0 mm
20:50 19.2 °C 17.2 °C 1017.8 hPa Calm   1.6 km/h 88 % 0.0 mm
20:54 20.9 °C 16.7 °C 1018.8 hPa WSW 3.7 km/h 3.7 km/h 77 % 0.0 mm
20:59 20.8 °C 16.6 °C 1018.8 hPa West 5.6 km/h 5.6 km/h 77 % 0.0 mm
21:00 19.2 °C 17.2 °C 1017.8 hPa Calm     88 % 0.0 mm
21:04 20.8 °C 16.6 °C 1018.8 hPa WSW 5.6 km/h 5.6 km/h 77 % 0.0 mm
21:09 20.8 °C 16.6 °C 1018.8 hPa WSW 6.4 km/h 6.4 km/h 77 % 0.0 mm
21:10 19.2 °C 17.2 °C 1017.8 hPa Calm   3.2 km/h 88 % 0.0 mm
21:14 20.7 °C 16.7 °C 1018.8 hPa WSW 3.9 km/h 3.9 km/h 78 % 0.0 mm
21:19 20.6 °C 16.6 °C 1018.8 hPa West 5.6 km/h 5.6 km/h 78 % 0.0 mm
21:20 19.1 °C 17.1 °C 1017.8 hPa Calm   4.8 km/h 88 % 0.0 mm
21:24 20.6 °C 16.6 °C 1018.8 hPa SW 5.6 km/h 5.6 km/h 78 % 0.0 mm
21:29 20.5 °C 16.6 °C 1018.8 hPa West 5.6 km/h 5.6 km/h 78 % 0.0 mm
21:30 19.1 °C 17.1 °C 1017.8 hPa Calm   1.6 km/h 88 % 0.0 mm
21:34 20.5 °C 16.7 °C 1018.8 hPa WSW 4.7 km/h 4.7 km/h 79 % 0.0 mm
21:39 20.4 °C 16.6 °C 1018.8 hPa SW 7.4 km/h 7.4 km/h 79 % 0.0 mm
21:40 19.1 °C 17.1 °C 1017.8 hPa Calm   1.6 km/h 88 % 0.0 mm
21:44 20.4 °C 16.6 °C 1018.8 hPa SW 7.4 km/h 7.4 km/h 79 % 0.0 mm
21:49 20.4 °C 16.8 °C 1018.8 hPa West 5.8 km/h 5.8 km/h 80 % 0.0 mm
21:50 19.1 °C 17.1 °C 1016.8 hPa NNW 1.6 km/h 3.2 km/h 88 % 0.0 mm
21:54 20.3 °C 16.7 °C 1018.8 hPa WSW 7.4 km/h 7.4 km/h 80 % 0.0 mm
21:59 20.3 °C 16.7 °C 1018.8 hPa SW 7.4 km/h 7.4 km/h 80 % 0.0 mm
22:00 19.1 °C 17.1 °C 1017.8 hPa Calm   4.8 km/h 88 % 0.0 mm
22:04 20.3 °C 16.7 °C 1018.8 hPa WSW 7.4 km/h 7.4 km/h 80 % 0.0 mm
22:09 20.2 °C 16.8 °C 1018.8 hPa WSW 5.6 km/h 5.6 km/h 81 % 0.0 mm
22:10 19.1 °C 17.1 °C 1017.8 hPa Calm   3.2 km/h 88 % 0.0 mm
22:14 20.2 °C 16.8 °C 1018.8 hPa WSW 3.7 km/h 3.7 km/h 81 % 0.0 mm
22:19 20.2 °C 16.8 °C 1018.8 hPa SW 9.3 km/h 9.3 km/h 81 % 0.0 mm
22:20 19.1 °C 17.1 °C 1016.8 hPa Calm   1.6 km/h 88 % 0.0 mm
22:24 20.2 °C 17.0 °C 1018.8 hPa West 1.9 km/h   82 % 0.0 mm
22:29 20.1 °C 16.9 °C 1018.8 hPa WSW 3.7 km/h 3.7 km/h 82 % 0.0 mm
22:30 19.0 °C 16.9 °C 1017.8 hPa NNW 1.6 km/h 3.2 km/h 88 % 0.0 mm
22:34 20.1 °C 16.9 °C 1018.8 hPa SW 3.7 km/h   82 % 0.0 mm
22:39 20.1 °C 16.9 °C 1018.8 hPa WSW 1.9 km/h 1.9 km/h 82 % 0.0 mm
22:40 19.0 °C 16.9 °C 1017.8 hPa Calm   3.2 km/h 88 % 0.0 mm
22:49 20.0 °C 16.8 °C 1018.8 hPa West 7.4 km/h 7.4 km/h 82 % 0.0 mm
22:50 19.0 °C 16.9 °C 1017.8 hPa NW 1.6 km/h 1.6 km/h 88 % 0.0 mm
22:54 20.0 °C 16.8 °C 1018.8 hPa West 3.7 km/h 3.7 km/h 82 % 0.0 mm
22:59 20.0 °C 16.8 °C 1018.8 hPa WSW 3.7 km/h 3.7 km/h 82 % 0.0 mm
23:00 19.1 °C 17.1 °C 1016.8 hPa Calm     88 % 0.0 mm
23:04 20.0 °C 17.0 °C 1018.8 hPa SW 1.9 km/h 1.9 km/h 83 % 0.0 mm
23:09 19.9 °C 17.1 °C 1018.8 hPa West 3.7 km/h 3.7 km/h 84 % 0.0 mm
23:10 19.1 °C 17.1 °C 1016.8 hPa North 1.6 km/h 3.2 km/h 88 % 0.0 mm
23:14 20.0 °C 17.0 °C 1018.8 hPa WSW 4.2 km/h 4.2 km/h 83 % 0.0 mm
23:19 19.9 °C 17.1 °C 1018.8 hPa SW 5.6 km/h 5.6 km/h 84 % 0.0 mm
23:20 19.1 °C 17.1 °C 1017.8 hPa North 1.6 km/h 3.2 km/h 88 % 0.0 mm
23:29 19.8 °C 17.2 °C 1018.8 hPa SW 1.9 km/h 1.9 km/h 85 % 0.0 mm
23:30 19.0 °C 16.8 °C 1016.8 hPa NNW 1.6 km/h 3.2 km/h 87 % 0.0 mm
23:34 19.9 °C 17.3 °C 1018.8 hPa SW 1.9 km/h   85 % 0.0 mm
23:40 18.9 °C 16.7 °C 1016.8 hPa NNW 3.2 km/h 4.8 km/h 87 % 0.0 mm
23:44 19.9 °C 17.1 °C 1017.8 hPa West 4.2 km/h 4.2 km/h 84 % 0.0 mm
23:49 19.9 °C 17.3 °C 1017.8 hPa West 5.6 km/h 5.6 km/h 85 % 0.0 mm
23:50 18.6 °C 16.4 °C 1017.8 hPa NW 4.8 km/h 6.4 km/h 87 % 0.0 mm
23:59 19.9 °C 17.3 °C 1018.8 hPa WNW 3.7 km/h 3.7 km/h 85 % 0.0 mm
Meteo Sesrovires
Elogis d' Weather Underground - 3.5 mb

Guio original per  Jim McMurry - jmcmurry@mwt.net Adaptat per a la plantilla per  Wim van der Kuil - Leuven-Template.eu

Trobareu la nostra informacio del temps tambe a:

Weather Underground

AWEKAS